Golspie, United Kingdom
Current Conditions -  °F | °C
As of 9:50 PM on Saturday 20 Dec 2014 (Local Time) from EGQK Reporting Station
Broken Clouds Broken Clouds  
Wind Chill: 36°   Ceiling: 11000
Heat Index: 41°   Visibility: 6mi
Dew Point: 36°   Wind: 7mph
Humidity: 81%   Direction: 200°SSW
Pressure: 30.06"   Gusts: NA
Location:  57.97°N, 3.98°W
Report Text: EGQK 202150Z AUTO 20006KT 9999 BKN110/// SCT210/// 05/02 Q1018
Loading
Personal Weather Stations






























Interactive Weather Map New forecast layout! Learn more

10-Day Weather Forecast

Advertisements
Track Severe Weather on mobile